createdAt,value
2018-05-14T00:02:12.491Z,20.60
2018-05-14T00:04:40.910Z,21.40
2018-05-14T00:07:09.361Z,21.77
2018-05-14T00:09:37.776Z,18.62
2018-05-14T00:12:06.216Z,16.67
2018-05-14T00:14:34.674Z,22.87
2018-05-14T00:17:03.097Z,23.75
2018-05-14T00:19:31.544Z,22.73
2018-05-14T00:21:59.959Z,25.67
2018-05-14T00:24:28.404Z,27.40
2018-05-14T00:26:56.814Z,24.85
2018-05-14T00:29:26.027Z,28.73
2018-05-14T00:31:54.440Z,23.20
2018-05-14T00:34:22.889Z,24.58
2018-05-14T00:36:51.297Z,27.40
2018-05-14T00:39:19.758Z,57.45
2018-05-14T00:41:48.188Z,50.22
2018-05-14T00:44:17.397Z,54.20
2018-05-14T00:46:45.822Z,43.45
2018-05-14T00:49:15.012Z,41.72
2018-05-14T00:51:44.272Z,33.55
2018-05-14T00:54:12.683Z,59.58
2018-05-14T00:56:41.128Z,39.45
2018-05-14T00:59:09.552Z,47.05
2018-05-14T01:01:38.028Z,65.75
2018-05-14T01:04:06.444Z,44.35
2018-05-14T01:06:35.686Z,49.80
2018-05-14T01:09:04.098Z,35.08
2018-05-14T01:11:32.611Z,49.25
2018-05-14T01:14:01.793Z,34.25
2018-05-14T01:16:30.255Z,27.10
2018-05-14T01:18:58.688Z,27.60
2018-05-14T01:21:27.908Z,19.17
2018-05-14T01:23:56.321Z,16.87
2018-05-14T01:26:24.771Z,16.25
2018-05-14T01:28:53.187Z,15.68
2018-05-14T01:31:21.598Z,14.40
2018-05-14T01:33:50.047Z,14.80
2018-05-14T01:36:18.473Z,13.27
2018-05-14T01:38:46.921Z,13.02
2018-05-14T01:41:16.540Z,15.18
2018-05-14T01:43:45.145Z,15.23
2018-05-14T01:46:13.572Z,11.52
2018-05-14T01:48:42.016Z,14.50
2018-05-14T01:51:10.431Z,13.77
2018-05-14T01:53:39.654Z,17.23
2018-05-14T01:56:08.114Z,14.43
2018-05-14T01:58:37.347Z,14.52
2018-05-14T02:01:05.760Z,15.87
2018-05-14T02:03:35.678Z,14.75
2018-05-14T02:06:04.114Z,14.47
2018-05-14T02:08:33.303Z,14.40
2018-05-14T02:11:02.522Z,16.05
2018-05-14T02:13:30.987Z,15.70
2018-05-14T02:16:00.210Z,16.70
2018-05-14T02:18:28.635Z,17.33
2018-05-14T02:20:57.094Z,17.85
2018-05-14T02:23:25.509Z,18.48
2018-05-14T02:25:53.961Z,224.02
2018-05-14T02:28:22.385Z,681.37
2018-05-14T02:30:50.898Z,916.95
2018-05-14T02:33:19.684Z,367.62
2018-05-14T02:35:48.110Z,189.93
2018-05-14T02:38:16.634Z,6.53
2018-05-14T02:40:47.169Z,281.95
2018-05-14T02:43:15.610Z,57.25
2018-05-14T02:45:44.016Z,29.00
2018-05-14T02:48:12.469Z,25.73
2018-05-14T02:50:41.951Z,270.65
2018-05-14T02:53:11.280Z,290.83
2018-05-14T02:55:40.940Z,73.10
2018-05-14T02:58:11.338Z,12.30
2018-05-14T03:00:39.852Z,198.27
2018-05-14T03:03:08.363Z,705.65
2018-05-14T03:05:37.004Z,788.45
2018-05-14T03:08:05.748Z,679.47
2018-05-14T03:10:34.262Z,74.32
2018-05-14T03:13:03.722Z,19.75
2018-05-14T03:15:32.193Z,50.33
2018-05-14T03:18:00.628Z,17.90
2018-05-14T03:20:29.821Z,66.53
2018-05-14T03:22:58.321Z,108.75
2018-05-14T03:25:26.781Z,303.27
2018-05-14T03:27:55.235Z,325.77
2018-05-14T03:30:23.650Z,34.63
2018-05-14T03:32:52.104Z,18.67
2018-05-14T03:35:20.548Z,16.45
2018-05-14T03:37:49.826Z,15.27
2018-05-14T03:40:18.235Z,18.73
2018-05-14T03:42:47.459Z,20.90
2018-05-14T03:45:15.870Z,16.65
2018-05-14T03:47:44.282Z,16.20
2018-05-14T03:50:12.719Z,18.65
2018-05-14T03:52:41.142Z,21.95
2018-05-14T03:55:09.590Z,23.40
2018-05-14T03:57:37.995Z,21.10
2018-05-14T04:00:24.033Z,22.80
2018-05-14T04:03:10.910Z,19.00
2018-05-14T04:05:57.055Z,20.77
2018-05-14T04:08:25.541Z,15.50
2018-05-14T04:10:54.705Z,34.87
2018-05-14T04:13:23.872Z,35.42
2018-05-14T04:15:52.315Z,21.30
2018-05-14T04:18:21.499Z,41.33
2018-05-14T04:20:49.943Z,15.48
2018-05-14T04:23:18.364Z,17.83
2018-05-14T04:25:47.567Z,13.43
2018-05-14T04:28:16.744Z,14.85
2018-05-14T04:30:45.967Z,17.90
2018-05-14T04:33:14.386Z,60.78
2018-05-14T04:35:42.835Z,92.18
2018-05-14T04:38:12.011Z,291.40
2018-05-14T04:40:40.470Z,607.83
2018-05-14T04:43:08.903Z,361.80
2018-05-14T04:45:38.096Z,215.07
2018-05-14T04:48:07.316Z,82.20
2018-05-14T04:50:35.741Z,311.85
2018-05-14T04:53:04.176Z,19.62
2018-05-14T04:55:32.591Z,247.52
2018-05-14T04:58:01.805Z,198.52
2018-05-14T05:00:30.236Z,273.95
2018-05-14T05:02:59.450Z,10.60
2018-05-14T05:05:28.640Z,62.00
2018-05-14T05:07:57.968Z,35.20
2018-05-14T05:10:26.415Z,76.22
2018-05-14T05:12:54.861Z,28.55
2018-05-14T05:15:23.270Z,36.13
2018-05-14T05:17:51.722Z,23.73
2018-05-14T05:20:20.145Z,11.93
2018-05-14T05:22:48.673Z,9.13
2018-05-14T05:25:17.094Z,10.00
2018-05-14T05:27:45.500Z,8.05
2018-05-14T05:30:13.948Z,7.60
2018-05-14T05:32:42.356Z,14.00
2018-05-14T05:35:10.818Z,8.70
2018-05-14T05:37:39.362Z,21.33
2018-05-14T05:40:08.512Z,13.35
2018-05-14T05:42:36.934Z,47.88
2018-05-14T05:45:05.416Z,37.90
2018-05-14T05:47:34.020Z,687.50
2018-05-14T05:50:02.495Z,508.95
2018-05-14T05:52:31.848Z,265.33
2018-05-14T05:55:00.249Z,465.50
2018-05-14T05:57:28.700Z,42.97
2018-05-14T05:59:57.156Z,189.52
2018-05-14T06:02:26.409Z,178.93
2018-05-14T06:04:54.829Z,17.75
2018-05-14T06:07:23.346Z,54.17
2018-05-14T06:09:52.528Z,575.17
2018-05-14T06:12:21.789Z,288.02
2018-05-14T06:14:50.222Z,228.07
2018-05-14T06:17:19.453Z,226.07
2018-05-14T06:19:47.875Z,472.30
2018-05-14T06:22:16.346Z,502.75
2018-05-14T06:24:44.769Z,146.25
2018-05-14T06:27:13.224Z,57.38
2018-05-14T06:29:41.638Z,31.60
2018-05-14T06:32:10.082Z,14.10
2018-05-14T06:34:38.516Z,27.17
2018-05-14T06:37:07.731Z,24.98
2018-05-14T06:39:36.906Z,20.62
2018-05-14T06:42:07.479Z,15.23
2018-05-14T06:44:35.893Z,14.65
2018-05-14T06:47:04.343Z,563.65
2018-05-14T06:49:32.777Z,375.52
2018-05-14T06:52:01.203Z,107.10
2018-05-14T06:54:30.413Z,16.37
2018-05-14T06:56:58.822Z,223.62
2018-05-14T06:59:28.081Z,1023.40
2018-05-14T07:01:57.264Z,1086.03
2018-05-14T07:04:25.708Z,93.50
2018-05-14T07:06:54.128Z,320.12
2018-05-14T07:09:22.570Z,127.25
2018-05-14T07:11:50.996Z,88.90
2018-05-14T07:14:19.441Z,42.22
2018-05-14T07:16:47.937Z,224.98
2018-05-14T07:19:16.390Z,457.10
2018-05-14T07:21:44.811Z,98.85
2018-05-14T07:24:13.259Z,73.47
2018-05-14T07:26:41.686Z,16.67
2018-05-14T07:29:10.315Z,19.65
2018-05-14T07:31:38.571Z,17.25
2018-05-14T07:34:06.983Z,18.52
2018-05-14T07:36:36.194Z,16.23
2018-05-14T07:39:06.275Z,11.95
2018-05-14T07:41:34.721Z,11.05
2018-05-14T07:44:03.125Z,10.40
2018-05-14T07:46:31.566Z,12.87
2018-05-14T07:49:00.755Z,52.38
2018-05-14T07:51:29.991Z,50.80
2018-05-14T07:53:58.408Z,110.55
2018-05-14T07:56:26.866Z,98.03
2018-05-14T07:58:55.267Z,22.77
2018-05-14T08:01:23.707Z,11.05
2018-05-14T08:03:52.184Z,10.10
2018-05-14T08:06:20.612Z,9.73
2018-05-14T08:08:49.028Z,20.75
2018-05-14T08:11:17.469Z,9.73
2018-05-14T08:13:45.901Z,11.55
2018-05-14T08:16:14.345Z,8.68
2018-05-14T08:18:42.748Z,8.10
2018-05-14T08:21:11.169Z,7.40
2018-05-14T08:23:40.376Z,7.60
2018-05-14T08:26:09.554Z,12.07
2018-05-14T08:28:37.990Z,7.25
2018-05-14T08:31:06.399Z,13.33
2018-05-14T08:33:34.850Z,12.15
2018-05-14T08:36:03.264Z,49.63
2018-05-14T08:38:31.689Z,12.10
2018-05-14T08:41:00.937Z,12.32
2018-05-14T08:43:29.378Z,43.30
2018-05-14T08:45:58.550Z,8.75
2018-05-14T08:48:26.997Z,9.73
2018-05-14T08:50:55.407Z,10.63
2018-05-14T08:53:23.845Z,10.37
2018-05-14T08:55:53.035Z,11.00
2018-05-14T08:58:22.250Z,10.02
2018-05-14T09:00:51.432Z,12.90
2018-05-14T09:03:20.611Z,10.05
2018-05-14T09:05:49.068Z,12.73
2018-05-14T09:08:17.540Z,9.82
2018-05-14T09:10:45.987Z,12.98
2018-05-14T09:13:14.402Z,10.95
2018-05-14T09:15:42.849Z,12.55
2018-05-14T09:18:11.260Z,15.77
2018-05-14T09:20:40.470Z,10.07
2018-05-14T09:23:09.640Z,14.55
2018-05-14T09:25:38.079Z,10.40
2018-05-14T09:28:06.499Z,10.38
2018-05-14T09:30:34.940Z,9.38
2018-05-14T09:33:03.347Z,9.05
2018-05-14T09:35:31.813Z,10.18
2018-05-14T09:38:00.218Z,11.00
2018-05-14T09:40:28.647Z,9.13
2018-05-14T09:42:57.838Z,10.55
2018-05-14T09:45:27.066Z,11.07
2018-05-14T09:47:55.476Z,10.13
2018-05-14T09:50:23.941Z,9.70
2018-05-14T09:52:53.115Z,10.43
2018-05-14T09:55:22.299Z,9.98
2018-05-14T09:57:50.743Z,9.57
2018-05-14T10:00:19.150Z,9.03
2018-05-14T10:02:47.599Z,9.30
2018-05-14T10:05:16.021Z,10.02
2018-05-14T10:07:44.533Z,10.13
2018-05-14T10:10:13.721Z,11.00
2018-05-14T10:12:42.176Z,10.90
2018-05-14T10:15:10.572Z,13.00
2018-05-14T10:17:39.017Z,11.23
2018-05-14T10:20:07.445Z,13.45
2018-05-14T10:22:35.896Z,12.40
2018-05-14T10:25:04.313Z,12.68
2018-05-14T10:27:32.886Z,13.70
2018-05-14T10:30:01.301Z,12.65
2018-05-14T10:32:29.766Z,13.90
2018-05-14T10:34:58.230Z,14.57
2018-05-14T10:37:26.710Z,15.63
2018-05-14T10:39:55.152Z,14.57
2018-05-14T10:42:23.656Z,15.68
2018-05-14T10:44:52.864Z,15.25
2018-05-14T10:47:21.406Z,14.95
2018-05-14T10:49:49.862Z,14.70
2018-05-14T10:52:18.286Z,14.23
2018-05-14T10:54:46.731Z,13.27
2018-05-14T10:57:15.146Z,13.73
2018-05-14T10:59:43.583Z,14.23
2018-05-14T11:02:11.997Z,15.35
2018-05-14T11:04:40.462Z,15.52
2018-05-14T11:07:08.884Z,15.18
2018-05-14T11:09:37.344Z,13.52
2018-05-14T11:12:05.777Z,15.05
2018-05-14T11:14:34.952Z,14.40
2018-05-14T11:17:03.408Z,14.35
2018-05-14T11:19:32.582Z,14.15
2018-05-14T11:22:01.797Z,13.57
2018-05-14T11:24:30.208Z,13.73
2018-05-14T11:26:58.654Z,14.07
2018-05-14T11:29:27.819Z,14.40
2018-05-14T11:31:56.341Z,15.13
2018-05-14T11:34:25.516Z,14.45
2018-05-14T11:36:53.952Z,15.50
2018-05-14T11:39:22.359Z,17.40
2018-05-14T11:41:50.821Z,18.83
2018-05-14T11:44:19.240Z,19.50
2018-05-14T11:46:49.029Z,19.23
2018-05-14T11:49:17.441Z,18.37
2018-05-14T11:51:45.857Z,18.25
2018-05-14T11:54:15.067Z,16.50
2018-05-14T11:56:43.687Z,22.42
2018-05-14T11:59:12.575Z,22.10
2018-05-14T12:01:40.991Z,23.95
2018-05-14T12:04:09.449Z,22.80
2018-05-14T12:06:37.874Z,26.20
2018-05-14T12:09:06.309Z,24.63
2018-05-14T12:11:34.731Z,23.87
2018-05-14T12:14:03.173Z,26.20
2018-05-14T12:16:31.679Z,29.07
2018-05-14T12:19:00.129Z,26.75
2018-05-14T12:21:28.559Z,27.27
2018-05-14T12:23:57.031Z,26.27
2018-05-14T12:26:25.460Z,28.67
2018-05-14T12:28:54.010Z,26.90
2018-05-14T12:31:22.431Z,35.65
2018-05-14T12:33:51.654Z,27.80
2018-05-14T12:36:20.181Z,27.95
2018-05-14T12:38:48.589Z,28.30
2018-05-14T12:41:17.105Z,25.00
2018-05-14T12:43:46.279Z,26.92
2018-05-14T12:46:14.818Z,24.90
2018-05-14T12:48:43.963Z,28.63
2018-05-14T12:51:12.404Z,27.95
2018-05-14T12:53:40.829Z,28.33
2018-05-14T12:56:09.287Z,28.30
2018-05-14T12:58:37.700Z,27.83
2018-05-14T13:01:06.155Z,27.67
2018-05-14T13:03:34.574Z,30.10
2018-05-14T13:06:03.027Z,29.35
2018-05-14T13:08:31.440Z,28.73
2018-05-14T13:10:59.912Z,27.57
2018-05-14T13:13:28.362Z,29.55
2018-05-14T13:15:57.112Z,31.83
2018-05-14T13:18:26.374Z,27.67
2018-05-14T13:20:54.770Z,28.77
2018-05-14T13:23:23.221Z,26.20
2018-05-14T13:25:51.644Z,24.52
2018-05-14T13:28:20.091Z,25.73
2018-05-14T13:30:48.536Z,26.40
2018-05-14T13:33:17.747Z,28.85
2018-05-14T13:35:46.187Z,27.00
2018-05-14T13:38:14.650Z,25.77
2018-05-14T13:40:43.091Z,27.70
2018-05-14T13:43:12.326Z,28.27
2018-05-14T13:45:40.727Z,30.62
2018-05-14T13:48:09.184Z,35.03
2018-05-14T13:50:37.611Z,37.63
2018-05-14T13:53:06.064Z,34.95
2018-05-14T13:55:34.503Z,37.15
2018-05-14T13:58:02.922Z,38.95
2018-05-14T14:00:32.142Z,40.83
2018-05-14T14:03:00.578Z,38.78
2018-05-14T14:05:29.042Z,33.83
2018-05-14T14:07:57.484Z,29.42
2018-05-14T14:10:25.928Z,31.15
2018-05-14T14:12:54.338Z,29.25
2018-05-14T14:15:23.559Z,31.35
2018-05-14T14:17:51.976Z,31.98
2018-05-14T14:20:20.430Z,33.28
2018-05-14T14:22:48.843Z,36.13
2018-05-14T14:25:17.312Z,31.40
2018-05-14T14:27:45.735Z,32.97
2018-05-14T14:30:14.145Z,35.20
2018-05-14T14:32:43.354Z,33.38
2018-05-14T14:35:12.548Z,33.13
2018-05-14T14:37:41.006Z,32.95
2018-05-14T14:40:09.436Z,34.33
2018-05-14T14:42:37.890Z,41.03
2018-05-14T14:45:06.298Z,42.17
2018-05-14T14:47:34.876Z,45.58
2018-05-14T14:50:04.166Z,40.75
2018-05-14T14:52:33.811Z,44.38
2018-05-14T14:55:02.222Z,39.13
2018-05-14T14:57:31.795Z,40.03
2018-05-14T15:00:00.235Z,39.83
2018-05-14T15:02:28.735Z,36.25
2018-05-14T15:04:57.948Z,38.23
2018-05-14T15:07:27.215Z,35.85
2018-05-14T15:09:55.631Z,33.20
2018-05-14T15:12:25.024Z,33.30
2018-05-14T15:14:53.440Z,39.22
2018-05-14T15:17:22.739Z,35.42
2018-05-14T15:19:51.968Z,37.80
2018-05-14T15:22:20.484Z,39.05
2018-05-14T15:24:48.937Z,36.40
2018-05-14T15:27:17.421Z,33.78
2018-05-14T15:29:45.936Z,32.75
2018-05-14T15:32:14.317Z,38.80
2018-05-14T15:34:42.754Z,37.63
2018-05-14T15:37:11.939Z,39.78
2018-05-14T15:39:41.153Z,39.03
2018-05-14T15:42:10.337Z,40.15
2018-05-14T15:44:38.788Z,40.15
2018-05-14T15:47:07.223Z,41.78
2018-05-14T15:49:36.449Z,40.85
2018-05-14T15:52:04.890Z,33.67
2018-05-14T15:54:33.354Z,41.53
2018-05-14T15:57:01.830Z,44.65
2018-05-14T15:59:30.282Z,49.90
2018-05-14T16:01:58.704Z,50.90
2018-05-14T16:04:27.696Z,56.37
2018-05-14T16:06:56.159Z,56.67
2018-05-14T16:09:24.595Z,58.92
2018-05-14T16:11:53.080Z,54.20
2018-05-14T16:14:21.505Z,56.03
2018-05-14T16:16:49.973Z,62.58
2018-05-14T16:19:19.166Z,60.47
2018-05-14T16:21:48.399Z,66.95
2018-05-14T16:24:16.903Z,68.95
2018-05-14T16:26:45.352Z,72.67
2018-05-14T16:29:13.778Z,70.53
2018-05-14T16:31:42.250Z,74.87
2018-05-14T16:34:10.670Z,72.68
2018-05-14T16:36:39.135Z,84.07
2018-05-14T16:39:07.572Z,85.32
2018-05-14T16:41:36.039Z,75.55
2018-05-14T16:44:05.312Z,94.28
2018-05-14T16:46:34.483Z,86.00
2018-05-14T16:49:02.994Z,72.87
2018-05-14T16:51:31.437Z,20.17
2018-05-14T16:53:59.895Z,20.65
2018-05-14T16:56:28.336Z,16.05
2018-05-14T16:58:56.809Z,18.83
2018-05-14T17:01:25.248Z,17.02
2018-05-14T17:03:53.824Z,22.10
2018-05-14T17:06:22.260Z,24.70
2018-05-14T17:08:50.738Z,23.23
2018-05-14T17:11:19.161Z,21.80
2018-05-14T17:13:47.637Z,22.60
2018-05-14T17:16:16.127Z,21.73
2018-05-14T17:18:45.032Z,21.77
2018-05-14T17:21:13.487Z,22.25
2018-05-14T17:23:41.965Z,25.92
2018-05-14T17:26:10.474Z,25.23
2018-05-14T17:28:39.201Z,24.30
2018-05-14T17:31:07.715Z,24.87
2018-05-14T17:33:36.221Z,28.38
2018-05-14T17:36:04.649Z,25.27
2018-05-14T17:38:35.391Z,21.75
2018-05-14T17:41:04.647Z,18.75
2018-05-14T17:43:33.899Z,15.93
2018-05-14T17:46:02.353Z,17.65
2018-05-14T17:48:30.773Z,18.10
2018-05-14T17:50:59.644Z,21.27
2018-05-14T17:53:28.086Z,30.52
2018-05-14T17:55:56.830Z,47.83
2018-05-14T17:58:25.341Z,56.00
2018-05-14T18:00:54.563Z,79.07
2018-05-14T18:03:29.656Z,69.80
2018-05-14T18:05:58.133Z,66.78
2018-05-14T18:08:26.621Z,66.70
2018-05-14T18:10:55.135Z,67.18
2018-05-14T18:13:23.548Z,64.20
2018-05-14T18:15:52.007Z,58.27
2018-05-14T18:18:20.513Z,55.22
2018-05-14T18:20:48.983Z,51.28
2018-05-14T18:23:24.879Z,55.33
2018-05-14T18:25:58.795Z,58.85
2018-05-14T18:28:32.863Z,54.67
2018-05-14T18:31:03.083Z,54.37
2018-05-14T18:33:32.289Z,50.63
2018-05-14T18:36:01.476Z,50.17
2018-05-14T18:38:29.924Z,47.78
2018-05-14T18:40:58.610Z,47.67
2018-05-14T18:43:27.064Z,45.83
2018-05-14T18:45:56.267Z,43.45
2018-05-14T18:48:24.964Z,47.80
2018-05-14T18:50:53.399Z,49.38
2018-05-14T18:53:21.857Z,46.15
2018-05-14T18:55:50.300Z,46.30
2018-05-14T18:58:19.517Z,43.97
2018-05-14T19:00:47.978Z,47.38
2018-05-14T19:03:17.214Z,47.30
2018-05-14T19:05:45.678Z,47.88
2018-05-14T19:08:14.207Z,49.38
2018-05-14T19:10:47.999Z,49.42
2018-05-14T19:13:16.480Z,49.57
2018-05-14T19:15:50.468Z,48.22
2018-05-14T19:18:18.917Z,48.23
2018-05-14T19:20:47.358Z,43.33
2018-05-14T19:23:21.369Z,45.12
2018-05-14T19:25:49.886Z,44.47
2018-05-14T19:28:23.842Z,45.33
2018-05-14T19:30:53.123Z,46.70
2018-05-14T19:33:27.894Z,48.22
2018-05-14T19:35:57.992Z,50.20
2018-05-14T19:38:27.976Z,47.55
2018-05-14T19:40:56.418Z,51.42
2018-05-14T19:43:24.943Z,51.97
2018-05-14T19:45:54.702Z,52.33
2018-05-14T19:48:23.891Z,49.47
2018-05-14T19:50:53.116Z,48.35
2018-05-14T19:53:21.560Z,48.38
2018-05-14T19:55:50.180Z,47.47
2018-05-14T19:58:19.358Z,45.33
2018-05-14T20:00:47.917Z,46.40
2018-05-14T20:03:16.447Z,44.88
2018-05-14T20:05:46.234Z,46.00
2018-05-14T20:08:14.841Z,49.78
2018-05-14T20:10:43.298Z,47.83
2018-05-14T20:13:11.799Z,43.87
2018-05-14T20:15:42.964Z,45.67
2018-05-14T20:18:12.188Z,44.85
2018-05-14T20:20:40.676Z,44.55
2018-05-14T20:23:09.148Z,45.12
2018-05-14T20:25:38.344Z,44.63
2018-05-14T20:28:07.636Z,44.00
2018-05-14T20:30:36.050Z,43.97
2018-05-14T20:33:04.511Z,45.92
2018-05-14T20:35:33.696Z,41.08
2018-05-14T20:38:02.155Z,40.03
2018-05-14T20:40:30.622Z,39.50
2018-05-14T20:42:59.186Z,36.67
2018-05-14T20:45:27.577Z,35.90
2018-05-14T20:47:56.057Z,32.95
2018-05-14T20:50:24.610Z,32.10
2018-05-14T20:52:53.135Z,32.20
2018-05-14T20:55:21.587Z,37.03
2018-05-14T20:57:50.806Z,34.15
2018-05-14T21:00:20.023Z,33.53
2018-05-14T21:02:48.483Z,29.05
2018-05-14T21:05:17.703Z,29.80
2018-05-14T21:07:46.169Z,27.25
2018-05-14T21:10:15.391Z,28.75
2018-05-14T21:12:43.822Z,28.98
2018-05-14T21:15:12.286Z,31.33
2018-05-14T21:17:40.711Z,31.03
2018-05-14T21:20:09.180Z,29.85
2018-05-14T21:22:37.606Z,33.83
2018-05-14T21:25:06.832Z,29.12
2018-05-14T21:27:35.319Z,27.73
2018-05-14T21:30:03.826Z,26.62
2018-05-14T21:32:33.829Z,30.40
2018-05-14T21:35:02.883Z,27.65
2018-05-14T21:37:32.750Z,21.33
2018-05-14T21:40:02.378Z,22.58
2018-05-14T21:42:31.005Z,20.60
2018-05-14T21:45:02.088Z,22.30
2018-05-14T21:47:31.435Z,23.73
2018-05-14T21:49:59.947Z,37.75
2018-05-14T21:52:29.425Z,30.98
2018-05-14T21:54:57.843Z,31.87
2018-05-14T21:57:27.146Z,32.08
2018-05-14T21:59:56.323Z,33.95
2018-05-14T22:02:24.772Z,33.05
2018-05-14T22:04:53.195Z,35.45
2018-05-14T22:07:21.681Z,40.22
2018-05-14T22:09:50.095Z,39.40
2018-05-14T22:12:18.557Z,31.30
2018-05-14T22:14:47.739Z,31.87
2018-05-14T22:17:16.182Z,28.38
2018-05-14T22:19:44.644Z,30.33
2018-05-14T22:22:13.834Z,28.20
2018-05-14T22:24:43.063Z,29.52
2018-05-14T22:27:11.476Z,28.12
2018-05-14T22:29:39.932Z,26.67
2018-05-14T22:32:09.230Z,27.67
2018-05-14T22:34:37.695Z,26.87
2018-05-14T22:37:06.899Z,28.50
2018-05-14T22:39:36.133Z,31.00
2018-05-14T22:42:04.571Z,24.48
2018-05-14T22:44:33.032Z,26.52
2018-05-14T22:47:01.528Z,26.05
2018-05-14T22:49:29.996Z,24.23
2018-05-14T22:51:58.431Z,23.20
2018-05-14T22:54:38.140Z,24.05
2018-05-14T22:57:06.574Z,24.15
2018-05-14T22:59:35.024Z,24.48
2018-05-14T23:02:03.464Z,25.25
2018-05-14T23:04:31.922Z,24.58
2018-05-14T23:07:00.966Z,26.70
2018-05-14T23:09:29.396Z,23.55
2018-05-14T23:11:58.610Z,23.17
2018-05-14T23:14:27.033Z,21.80
2018-05-14T23:16:55.500Z,23.45
2018-05-14T23:19:23.920Z,22.48
2018-05-14T23:21:52.386Z,24.37
2018-05-14T23:24:20.803Z,21.87
2018-05-14T23:26:49.271Z,27.67
2018-05-14T23:29:18.655Z,25.27
2018-05-14T23:31:47.141Z,28.05
2018-05-14T23:34:15.575Z,28.65
2018-05-14T23:36:44.796Z,30.23
2018-05-14T23:39:13.202Z,31.48
2018-05-14T23:41:41.663Z,36.67
2018-05-14T23:44:10.104Z,39.95
2018-05-14T23:46:38.569Z,47.45
2018-05-14T23:49:06.994Z,79.40
2018-05-14T23:51:36.209Z,61.67
2018-05-14T23:54:05.410Z,99.40
2018-05-14T23:56:34.639Z,36.35
2018-05-14T23:59:03.827Z,30.77
